sensor_id;sensor_type;location;lat;lon;timestamp;P1;durP1;ratioP1;P2;durP2;ratioP2
13325;SDS011;6732;51.044;3.746;2022-11-15T00:01:57;21.47;;;15.80;;
13325;SDS011;6732;51.044;3.746;2022-11-15T00:04:23;23.33;;;16.13;;
13325;SDS011;6732;51.044;3.746;2022-11-15T00:06:49;21.33;;;15.83;;
13325;SDS011;6732;51.044;3.746;2022-11-15T00:09:14;22.17;;;15.67;;
13325;SDS011;6732;51.044;3.746;2022-11-15T00:11:40;19.87;;;15.40;;
13325;SDS011;6732;51.044;3.746;2022-11-15T00:14:06;17.10;;;14.30;;
13325;SDS011;6732;51.044;3.746;2022-11-15T00:16:32;17.10;;;14.27;;
13325;SDS011;6732;51.044;3.746;2022-11-15T00:18:58;18.03;;;14.47;;
13325;SDS011;6732;51.044;3.746;2022-11-15T00:21:24;18.70;;;13.87;;
13325;SDS011;6732;51.044;3.746;2022-11-15T00:23:50;16.53;;;13.10;;
13325;SDS011;6732;51.044;3.746;2022-11-15T00:26:16;18.47;;;14.00;;
13325;SDS011;6732;51.044;3.746;2022-11-15T00:28:42;16.87;;;12.97;;
13325;SDS011;6732;51.044;3.746;2022-11-15T00:31:09;16.27;;;12.77;;
13325;SDS011;6732;51.044;3.746;2022-11-15T00:33:37;16.53;;;13.20;;
13325;SDS011;6732;51.044;3.746;2022-11-15T00:36:04;14.43;;;12.93;;
13325;SDS011;6732;51.044;3.746;2022-11-15T00:38:33;19.07;;;13.70;;
13325;SDS011;6732;51.044;3.746;2022-11-15T00:40:59;17.43;;;13.27;;
13325;SDS011;6732;51.044;3.746;2022-11-15T00:43:26;17.43;;;13.30;;
13325;SDS011;6732;51.044;3.746;2022-11-15T00:45:52;18.20;;;13.23;;
13325;SDS011;6732;51.044;3.746;2022-11-15T00:48:18;16.50;;;13.17;;
13325;SDS011;6732;51.044;3.746;2022-11-15T00:50:44;16.53;;;12.57;;
13325;SDS011;6732;51.044;3.746;2022-11-15T00:53:10;16.87;;;12.67;;
13325;SDS011;6732;51.044;3.746;2022-11-15T00:55:36;14.50;;;12.77;;
13325;SDS011;6732;51.044;3.746;2022-11-15T00:58:02;17.43;;;12.53;;
13325;SDS011;6732;51.044;3.746;2022-11-15T01:00:28;15.53;;;11.90;;
13325;SDS011;6732;51.044;3.746;2022-11-15T01:02:54;17.13;;;12.73;;
13325;SDS011;6732;51.044;3.746;2022-11-15T01:05:20;14.23;;;12.73;;
13325;SDS011;6732;51.044;3.746;2022-11-15T01:07:46;17.30;;;12.93;;
13325;SDS011;6732;51.044;3.746;2022-11-15T01:10:12;17.93;;;13.33;;
13325;SDS011;6732;51.044;3.746;2022-11-15T01:12:38;18.27;;;12.93;;
13325;SDS011;6732;51.044;3.746;2022-11-15T01:15:04;17.73;;;12.53;;
13325;SDS011;6732;51.044;3.746;2022-11-15T01:17:31;18.47;;;12.57;;
13325;SDS011;6732;51.044;3.746;2022-11-15T01:19:57;18.43;;;13.43;;
13325;SDS011;6732;51.044;3.746;2022-11-15T01:22:23;19.77;;;14.27;;
13325;SDS011;6732;51.044;3.746;2022-11-15T01:24:49;17.47;;;12.70;;
13325;SDS011;6732;51.044;3.746;2022-11-15T01:27:16;16.90;;;12.27;;
13325;SDS011;6732;51.044;3.746;2022-11-15T01:29:41;16.80;;;12.50;;
13325;SDS011;6732;51.044;3.746;2022-11-15T01:32:07;17.63;;;13.27;;
13325;SDS011;6732;51.044;3.746;2022-11-15T01:34:33;16.20;;;12.63;;
13325;SDS011;6732;51.044;3.746;2022-11-15T01:37:00;18.70;;;13.23;;
13325;SDS011;6732;51.044;3.746;2022-11-15T01:39:26;17.47;;;12.67;;
13325;SDS011;6732;51.044;3.746;2022-11-15T01:41:52;14.57;;;11.67;;
13325;SDS011;6732;51.044;3.746;2022-11-15T01:46:56;19.40;;;12.33;;
13325;SDS011;6732;51.044;3.746;2022-11-15T01:49:24;13.97;;;11.73;;
13325;SDS011;6732;51.044;3.746;2022-11-15T01:51:52;17.67;;;12.60;;
13325;SDS011;6732;51.044;3.746;2022-11-15T01:54:20;18.43;;;11.17;;
13325;SDS011;6732;51.044;3.746;2022-11-15T01:56:50;17.03;;;10.67;;
13325;SDS011;6732;51.044;3.746;2022-11-15T01:59:21;15.70;;;11.17;;
13325;SDS011;6732;51.044;3.746;2022-11-15T02:01:47;15.03;;;10.27;;
13325;SDS011;6732;51.044;3.746;2022-11-15T02:04:18;13.37;;;10.10;;
13325;SDS011;6732;51.044;3.746;2022-11-15T02:06:53;15.73;;;9.57;;
13325;SDS011;6732;51.044;3.746;2022-11-15T02:09:19;14.83;;;10.00;;
13325;SDS011;6732;51.044;3.746;2022-11-15T02:11:45;12.97;;;9.80;;
13325;SDS011;6732;51.044;3.746;2022-11-15T02:14:14;14.63;;;9.30;;
13325;SDS011;6732;51.044;3.746;2022-11-15T02:16:58;10.93;;;8.90;;
13325;SDS011;6732;51.044;3.746;2022-11-15T02:25:36;11.90;;;8.27;;
13325;SDS011;6732;51.044;3.746;2022-11-15T02:30:38;11.60;;;7.90;;
13325;SDS011;6732;51.044;3.746;2022-11-15T02:33:15;13.73;;;8.13;;
13325;SDS011;6732;51.044;3.746;2022-11-15T02:36:00;11.33;;;7.77;;
13325;SDS011;6732;51.044;3.746;2022-11-15T02:38:47;9.80;;;7.17;;
13325;SDS011;6732;51.044;3.746;2022-11-15T02:41:39;12.40;;;7.93;;
13325;SDS011;6732;51.044;3.746;2022-11-15T02:44:15;12.07;;;7.30;;
13325;SDS011;6732;51.044;3.746;2022-11-15T02:46:58;11.80;;;7.43;;
13325;SDS011;6732;51.044;3.746;2022-11-15T02:49:39;10.40;;;7.63;;
13325;SDS011;6732;51.044;3.746;2022-11-15T02:52:21;12.17;;;7.43;;
13325;SDS011;6732;51.044;3.746;2022-11-15T02:54:55;11.73;;;6.90;;
13325;SDS011;6732;51.044;3.746;2022-11-15T02:57:27;12.23;;;7.10;;
13325;SDS011;6732;51.044;3.746;2022-11-15T03:16:12;12.93;;;7.07;;
13325;SDS011;6732;51.044;3.746;2022-11-15T03:19:08;10.93;;;6.47;;
13325;SDS011;6732;51.044;3.746;2022-11-15T03:21:39;9.10;;;6.20;;
13325;SDS011;6732;51.044;3.746;2022-11-15T03:24:06;13.10;;;6.23;;
13325;SDS011;6732;51.044;3.746;2022-11-15T03:26:34;9.60;;;6.00;;
13325;SDS011;6732;51.044;3.746;2022-11-15T03:29:13;10.63;;;6.50;;
13325;SDS011;6732;51.044;3.746;2022-11-15T03:31:44;10.90;;;6.07;;
13325;SDS011;6732;51.044;3.746;2022-11-15T03:35:14;10.37;;;5.93;;
13325;SDS011;6732;51.044;3.746;2022-11-15T03:37:35;10.00;;;5.90;;
13325;SDS011;6732;51.044;3.746;2022-11-15T03:40:17;8.83;;;5.97;;
13325;SDS011;6732;51.044;3.746;2022-11-15T03:42:48;8.10;;;5.40;;
13325;SDS011;6732;51.044;3.746;2022-11-15T03:45:32;7.43;;;5.10;;
13325;SDS011;6732;51.044;3.746;2022-11-15T03:48:17;9.07;;;5.20;;
13325;SDS011;6732;51.044;3.746;2022-11-15T03:50:46;8.13;;;5.20;;
13325;SDS011;6732;51.044;3.746;2022-11-15T03:53:13;8.53;;;5.73;;
13325;SDS011;6732;51.044;3.746;2022-11-15T03:55:47;9.17;;;5.73;;
13325;SDS011;6732;51.044;3.746;2022-11-15T03:58:13;7.30;;;5.50;;
13325;SDS011;6732;51.044;3.746;2022-11-15T04:00:38;7.70;;;5.07;;
13325;SDS011;6732;51.044;3.746;2022-11-15T04:03:04;9.97;;;5.53;;
13325;SDS011;6732;51.044;3.746;2022-11-15T04:05:31;10.53;;;5.37;;
13325;SDS011;6732;51.044;3.746;2022-11-15T04:07:56;6.97;;;5.20;;
13325;SDS011;6732;51.044;3.746;2022-11-15T04:10:22;11.53;;;5.00;;
13325;SDS011;6732;51.044;3.746;2022-11-15T04:12:48;8.53;;;5.60;;
13325;SDS011;6732;51.044;3.746;2022-11-15T04:15:16;7.10;;;5.57;;
13325;SDS011;6732;51.044;3.746;2022-11-15T04:17:44;8.97;;;5.20;;
13325;SDS011;6732;51.044;3.746;2022-11-15T04:20:19;10.57;;;6.00;;
13325;SDS011;6732;51.044;3.746;2022-11-15T04:23:17;7.73;;;5.10;;
13325;SDS011;6732;51.044;3.746;2022-11-15T04:26:04;8.43;;;4.60;;
13325;SDS011;6732;51.044;3.746;2022-11-15T04:28:32;9.77;;;4.70;;
13325;SDS011;6732;51.044;3.746;2022-11-15T04:30:58;8.90;;;5.07;;
13325;SDS011;6732;51.044;3.746;2022-11-15T04:33:24;8.27;;;4.53;;
13325;SDS011;6732;51.044;3.746;2022-11-15T04:35:50;8.20;;;5.23;;
13325;SDS011;6732;51.044;3.746;2022-11-15T04:38:35;7.93;;;5.33;;
13325;SDS011;6732;51.044;3.746;2022-11-15T04:41:02;8.23;;;4.97;;
13325;SDS011;6732;51.044;3.746;2022-11-15T04:43:28;7.93;;;4.90;;
13325;SDS011;6732;51.044;3.746;2022-11-15T04:45:55;8.07;;;4.53;;
13325;SDS011;6732;51.044;3.746;2022-11-15T04:48:21;5.37;;;4.30;;
13325;SDS011;6732;51.044;3.746;2022-11-15T04:50:47;9.73;;;4.60;;
13325;SDS011;6732;51.044;3.746;2022-11-15T04:53:13;6.93;;;4.40;;
13325;SDS011;6732;51.044;3.746;2022-11-15T04:55:39;6.57;;;4.37;;
13325;SDS011;6732;51.044;3.746;2022-11-15T04:58:09;7.93;;;3.97;;
13325;SDS011;6732;51.044;3.746;2022-11-15T05:00:35;8.07;;;4.20;;
13325;SDS011;6732;51.044;3.746;2022-11-15T05:03:02;6.57;;;4.43;;
13325;SDS011;6732;51.044;3.746;2022-11-15T05:05:47;6.87;;;4.47;;
13325;SDS011;6732;51.044;3.746;2022-11-15T05:08:13;8.20;;;4.87;;
13325;SDS011;6732;51.044;3.746;2022-11-15T05:10:39;8.47;;;4.00;;
13325;SDS011;6732;51.044;3.746;2022-11-15T05:13:04;7.07;;;4.60;;
13325;SDS011;6732;51.044;3.746;2022-11-15T05:15:30;11.67;;;4.60;;
13325;SDS011;6732;51.044;3.746;2022-11-15T05:17:59;9.97;;;4.80;;
13325;SDS011;6732;51.044;3.746;2022-11-15T05:20:28;7.77;;;4.70;;
13325;SDS011;6732;51.044;3.746;2022-11-15T05:22:54;7.07;;;4.13;;
13325;SDS011;6732;51.044;3.746;2022-11-15T05:25:21;9.80;;;4.53;;
13325;SDS011;6732;51.044;3.746;2022-11-15T05:27:47;9.67;;;4.83;;
13325;SDS011;6732;51.044;3.746;2022-11-15T05:30:14;6.37;;;4.37;;
13325;SDS011;6732;51.044;3.746;2022-11-15T05:32:40;6.50;;;4.40;;
13325;SDS011;6732;51.044;3.746;2022-11-15T05:35:06;11.07;;;4.60;;
13325;SDS011;6732;51.044;3.746;2022-11-15T05:37:36;12.40;;;4.73;;
13325;SDS011;6732;51.044;3.746;2022-11-15T05:40:02;8.30;;;4.23;;
13325;SDS011;6732;51.044;3.746;2022-11-15T05:42:29;9.67;;;4.07;;
13325;SDS011;6732;51.044;3.746;2022-11-15T05:44:55;7.60;;;3.87;;
13325;SDS011;6732;51.044;3.746;2022-11-15T05:47:24;8.90;;;3.80;;
13325;SDS011;6732;51.044;3.746;2022-11-15T05:49:53;8.83;;;3.90;;
13325;SDS011;6732;51.044;3.746;2022-11-15T05:52:21;5.27;;;3.37;;
13325;SDS011;6732;51.044;3.746;2022-11-15T05:54:50;6.27;;;3.87;;
13325;SDS011;6732;51.044;3.746;2022-11-15T05:57:17;5.80;;;3.33;;
13325;SDS011;6732;51.044;3.746;2022-11-15T05:59:43;4.73;;;3.37;;
13325;SDS011;6732;51.044;3.746;2022-11-15T06:02:10;6.27;;;3.37;;
13325;SDS011;6732;51.044;3.746;2022-11-15T06:04:36;6.40;;;3.37;;
13325;SDS011;6732;51.044;3.746;2022-11-15T06:07:02;5.30;;;3.73;;
13325;SDS011;6732;51.044;3.746;2022-11-15T06:09:28;9.77;;;3.50;;
13325;SDS011;6732;51.044;3.746;2022-11-15T06:11:54;5.20;;;3.60;;
13325;SDS011;6732;51.044;3.746;2022-11-15T06:14:20;5.13;;;3.83;;
13325;SDS011;6732;51.044;3.746;2022-11-15T06:16:46;5.67;;;3.90;;
13325;SDS011;6732;51.044;3.746;2022-11-15T06:19:12;5.90;;;3.60;;
13325;SDS011;6732;51.044;3.746;2022-11-15T06:21:38;6.33;;;3.50;;
13325;SDS011;6732;51.044;3.746;2022-11-15T06:24:04;7.33;;;3.80;;
13325;SDS011;6732;51.044;3.746;2022-11-15T06:26:31;7.27;;;3.77;;
13325;SDS011;6732;51.044;3.746;2022-11-15T06:28:57;5.30;;;4.37;;
13325;SDS011;6732;51.044;3.746;2022-11-15T06:31:23;6.10;;;4.67;;
13325;SDS011;6732;51.044;3.746;2022-11-15T06:33:49;6.40;;;4.33;;
13325;SDS011;6732;51.044;3.746;2022-11-15T06:36:15;7.17;;;4.10;;
13325;SDS011;6732;51.044;3.746;2022-11-15T06:38:42;6.03;;;4.30;;
13325;SDS011;6732;51.044;3.746;2022-11-15T06:41:10;8.13;;;4.50;;
13325;SDS011;6732;51.044;3.746;2022-11-15T06:43:36;6.03;;;4.13;;
13325;SDS011;6732;51.044;3.746;2022-11-15T06:46:03;7.67;;;4.70;;
13325;SDS011;6732;51.044;3.746;2022-11-15T06:48:30;8.40;;;4.70;;
13325;SDS011;6732;51.044;3.746;2022-11-15T06:50:58;7.53;;;4.40;;
13325;SDS011;6732;51.044;3.746;2022-11-15T06:53:25;7.87;;;4.53;;
13325;SDS011;6732;51.044;3.746;2022-11-15T06:55:51;9.37;;;4.50;;
13325;SDS011;6732;51.044;3.746;2022-11-15T06:58:18;5.33;;;4.07;;
13325;SDS011;6732;51.044;3.746;2022-11-15T07:00:45;5.13;;;4.43;;
13325;SDS011;6732;51.044;3.746;2022-11-15T07:03:11;5.90;;;4.30;;
13325;SDS011;6732;51.044;3.746;2022-11-15T07:05:37;6.00;;;4.23;;
13325;SDS011;6732;51.044;3.746;2022-11-15T07:08:03;5.53;;;4.13;;
13325;SDS011;6732;51.044;3.746;2022-11-15T07:10:29;6.97;;;4.60;;
13325;SDS011;6732;51.044;3.746;2022-11-15T07:12:55;6.37;;;4.97;;
13325;SDS011;6732;51.044;3.746;2022-11-15T07:15:23;7.87;;;4.27;;
13325;SDS011;6732;51.044;3.746;2022-11-15T07:17:50;6.37;;;4.40;;
13325;SDS011;6732;51.044;3.746;2022-11-15T07:20:16;4.37;;;3.97;;
13325;SDS011;6732;51.044;3.746;2022-11-15T07:22:43;6.50;;;4.17;;
13325;SDS011;6732;51.044;3.746;2022-11-15T07:25:12;6.27;;;4.30;;
13325;SDS011;6732;51.044;3.746;2022-11-15T07:27:38;5.63;;;3.90;;
13325;SDS011;6732;51.044;3.746;2022-11-15T07:30:04;4.97;;;3.80;;
13325;SDS011;6732;51.044;3.746;2022-11-15T07:32:31;5.33;;;3.80;;
13325;SDS011;6732;51.044;3.746;2022-11-15T07:34:57;5.47;;;4.07;;
13325;SDS011;6732;51.044;3.746;2022-11-15T07:37:22;7.60;;;4.40;;
13325;SDS011;6732;51.044;3.746;2022-11-15T07:39:48;6.37;;;4.03;;
13325;SDS011;6732;51.044;3.746;2022-11-15T07:42:14;6.40;;;4.20;;
13325;SDS011;6732;51.044;3.746;2022-11-15T07:44:58;8.87;;;4.63;;
13325;SDS011;6732;51.044;3.746;2022-11-15T07:47:24;5.30;;;4.80;;
13325;SDS011;6732;51.044;3.746;2022-11-15T07:49:50;7.40;;;4.50;;
13325;SDS011;6732;51.044;3.746;2022-11-15T07:52:17;6.27;;;4.37;;
13325;SDS011;6732;51.044;3.746;2022-11-15T07:54:43;6.60;;;4.80;;
13325;SDS011;6732;51.044;3.746;2022-11-15T07:57:08;7.53;;;4.30;;
13325;SDS011;6732;51.044;3.746;2022-11-15T07:59:35;6.63;;;4.67;;
13325;SDS011;6732;51.044;3.746;2022-11-15T08:02:01;8.53;;;5.10;;
13325;SDS011;6732;51.044;3.746;2022-11-15T08:04:27;9.10;;;4.30;;
13325;SDS011;6732;51.044;3.746;2022-11-15T08:06:53;6.93;;;4.17;;
13325;SDS011;6732;51.044;3.746;2022-11-15T08:09:19;6.23;;;3.90;;
13325;SDS011;6732;51.044;3.746;2022-11-15T08:11:45;7.23;;;4.30;;
13325;SDS011;6732;51.044;3.746;2022-11-15T08:14:11;6.73;;;3.93;;
13325;SDS011;6732;51.044;3.746;2022-11-15T08:16:37;7.60;;;3.83;;
13325;SDS011;6732;51.044;3.746;2022-11-15T08:19:03;5.80;;;3.67;;
13325;SDS011;6732;51.044;3.746;2022-11-15T08:21:29;5.53;;;3.23;;
13325;SDS011;6732;51.044;3.746;2022-11-15T08:23:55;10.20;;;3.70;;
13325;SDS011;6732;51.044;3.746;2022-11-15T08:26:21;7.00;;;3.50;;
13325;SDS011;6732;51.044;3.746;2022-11-15T08:28:47;8.67;;;3.90;;
13325;SDS011;6732;51.044;3.746;2022-11-15T08:31:13;5.33;;;4.07;;
13325;SDS011;6732;51.044;3.746;2022-11-15T08:33:42;8.50;;;3.57;;
13325;SDS011;6732;51.044;3.746;2022-11-15T08:36:10;7.00;;;3.57;;
13325;SDS011;6732;51.044;3.746;2022-11-15T08:38:39;6.00;;;3.80;;
13325;SDS011;6732;51.044;3.746;2022-11-15T08:41:04;5.90;;;3.70;;
13325;SDS011;6732;51.044;3.746;2022-11-15T08:43:31;8.80;;;3.30;;
13325;SDS011;6732;51.044;3.746;2022-11-15T08:45:58;9.93;;;3.07;;
13325;SDS011;6732;51.044;3.746;2022-11-15T08:48:24;7.53;;;3.50;;
13325;SDS011;6732;51.044;3.746;2022-11-15T08:50:53;5.70;;;2.87;;
13325;SDS011;6732;51.044;3.746;2022-11-15T08:53:20;5.23;;;3.03;;
13325;SDS011;6732;51.044;3.746;2022-11-15T08:55:47;8.30;;;3.23;;
13325;SDS011;6732;51.044;3.746;2022-11-15T08:58:13;6.97;;;2.60;;
13325;SDS011;6732;51.044;3.746;2022-11-15T09:00:39;4.73;;;3.13;;
13325;SDS011;6732;51.044;3.746;2022-11-15T09:03:05;6.07;;;2.80;;
13325;SDS011;6732;51.044;3.746;2022-11-15T09:05:31;6.03;;;2.57;;
13325;SDS011;6732;51.044;3.746;2022-11-15T09:07:57;4.93;;;2.30;;
13325;SDS011;6732;51.044;3.746;2022-11-15T09:10:23;8.37;;;2.53;;
13325;SDS011;6732;51.044;3.746;2022-11-15T09:12:50;8.53;;;2.83;;
13325;SDS011;6732;51.044;3.746;2022-11-15T09:15:16;6.07;;;2.60;;
13325;SDS011;6732;51.044;3.746;2022-11-15T09:17:42;6.57;;;2.80;;
13325;SDS011;6732;51.044;3.746;2022-11-15T09:20:08;8.67;;;2.70;;
13325;SDS011;6732;51.044;3.746;2022-11-15T09:22:34;5.50;;;2.70;;
13325;SDS011;6732;51.044;3.746;2022-11-15T09:25:02;5.63;;;2.60;;
13325;SDS011;6732;51.044;3.746;2022-11-15T09:27:29;7.53;;;2.27;;
13325;SDS011;6732;51.044;3.746;2022-11-15T09:29:55;6.53;;;2.20;;
13325;SDS011;6732;51.044;3.746;2022-11-15T09:32:21;5.13;;;2.57;;
13325;SDS011;6732;51.044;3.746;2022-11-15T09:34:50;6.83;;;2.40;;
13325;SDS011;6732;51.044;3.746;2022-11-15T09:37:16;8.70;;;2.60;;
13325;SDS011;6732;51.044;3.746;2022-11-15T09:39:42;7.00;;;2.40;;
13325;SDS011;6732;51.044;3.746;2022-11-15T09:42:23;7.80;;;2.77;;
13325;SDS011;6732;51.044;3.746;2022-11-15T09:47:57;6.73;;;2.40;;
13325;SDS011;6732;51.044;3.746;2022-11-15T09:50:31;5.40;;;2.07;;
13325;SDS011;6732;51.044;3.746;2022-11-15T09:53:29;7.87;;;2.13;;
13325;SDS011;6732;51.044;3.746;2022-11-15T09:56:05;5.73;;;1.97;;
13325;SDS011;6732;51.044;3.746;2022-11-15T09:59:27;8.20;;;2.17;;
13325;SDS011;6732;51.044;3.746;2022-11-15T10:01:44;4.67;;;2.27;;
13325;SDS011;6732;51.044;3.746;2022-11-15T10:04:13;6.23;;;2.30;;
13325;SDS011;6732;51.044;3.746;2022-11-15T10:06:42;5.00;;;2.10;;
13325;SDS011;6732;51.044;3.746;2022-11-15T10:09:24;6.90;;;2.20;;
13325;SDS011;6732;51.044;3.746;2022-11-15T10:11:55;8.97;;;2.20;;
13325;SDS011;6732;51.044;3.746;2022-11-15T10:14:24;4.83;;;2.17;;
13325;SDS011;6732;51.044;3.746;2022-11-15T10:17:06;4.70;;;2.30;;
13325;SDS011;6732;51.044;3.746;2022-11-15T10:27:34;10.00;;;2.53;;
13325;SDS011;6732;51.044;3.746;2022-11-15T10:30:00;7.87;;;2.47;;
13325;SDS011;6732;51.044;3.746;2022-11-15T10:32:28;5.80;;;2.23;;
13325;SDS011;6732;51.044;3.746;2022-11-15T10:34:58;7.00;;;2.20;;
13325;SDS011;6732;51.044;3.746;2022-11-15T10:37:30;7.20;;;2.40;;
13325;SDS011;6732;51.044;3.746;2022-11-15T10:40:03;7.40;;;2.27;;
13325;SDS011;6732;51.044;3.746;2022-11-15T10:42:31;6.93;;;1.87;;
13325;SDS011;6732;51.044;3.746;2022-11-15T10:44:57;5.53;;;2.13;;
13325;SDS011;6732;51.044;3.746;2022-11-15T10:47:27;5.63;;;2.07;;
13325;SDS011;6732;51.044;3.746;2022-11-15T10:49:57;5.50;;;1.97;;
13325;SDS011;6732;51.044;3.746;2022-11-15T10:52:45;3.53;;;1.90;;
13325;SDS011;6732;51.044;3.746;2022-11-15T10:57:38;7.10;;;2.10;;
13325;SDS011;6732;51.044;3.746;2022-11-15T11:00:46;8.83;;;2.30;;
13325;SDS011;6732;51.044;3.746;2022-11-15T11:03:00;5.90;;;1.90;;
13325;SDS011;6732;51.044;3.746;2022-11-15T11:05:29;7.13;;;2.20;;
13325;SDS011;6732;51.044;3.746;2022-11-15T11:07:59;4.73;;;1.80;;
13325;SDS011;6732;51.044;3.746;2022-11-15T11:10:26;7.03;;;1.80;;
13325;SDS011;6732;51.044;3.746;2022-11-15T11:12:53;5.30;;;2.17;;
13325;SDS011;6732;51.044;3.746;2022-11-15T11:15:18;8.90;;;2.10;;
13325;SDS011;6732;51.044;3.746;2022-11-15T11:17:54;5.90;;;1.90;;
13325;SDS011;6732;51.044;3.746;2022-11-15T11:25:41;5.30;;;2.00;;
13325;SDS011;6732;51.044;3.746;2022-11-15T11:36:48;3.10;;;1.60;;
13325;SDS011;6732;51.044;3.746;2022-11-15T11:42:10;7.93;;;1.90;;
13325;SDS011;6732;51.044;3.746;2022-11-15T11:47:24;9.30;;;2.23;;
13325;SDS011;6732;51.044;3.746;2022-11-15T11:50:00;7.33;;;1.90;;
13325;SDS011;6732;51.044;3.746;2022-11-15T11:58:14;7.43;;;1.70;;
13325;SDS011;6732;51.044;3.746;2022-11-15T12:00:55;9.73;;;2.00;;
13325;SDS011;6732;51.044;3.746;2022-11-15T12:03:32;5.80;;;1.97;;
13325;SDS011;6732;51.044;3.746;2022-11-15T12:08:56;6.97;;;1.53;;
13325;SDS011;6732;51.044;3.746;2022-11-15T12:14:41;6.70;;;2.00;;
13325;SDS011;6732;51.044;3.746;2022-11-15T12:17:12;2.97;;;1.57;;
13325;SDS011;6732;51.044;3.746;2022-11-15T12:19:41;4.57;;;2.43;;
13325;SDS011;6732;51.044;3.746;2022-11-15T12:22:20;7.97;;;1.67;;
13325;SDS011;6732;51.044;3.746;2022-11-15T12:24:54;4.13;;;1.50;;
13325;SDS011;6732;51.044;3.746;2022-11-15T12:30:14;7.83;;;1.80;;
13325;SDS011;6732;51.044;3.746;2022-11-15T12:32:53;4.47;;;1.30;;
13325;SDS011;6732;51.044;3.746;2022-11-15T12:37:51;3.23;;;1.33;;
13325;SDS011;6732;51.044;3.746;2022-11-15T12:40:33;2.47;;;1.13;;
13325;SDS011;6732;51.044;3.746;2022-11-15T12:45:34;5.13;;;1.43;;
13325;SDS011;6732;51.044;3.746;2022-11-15T12:58:41;4.27;;;1.50;;
13325;SDS011;6732;51.044;3.746;2022-11-15T13:06:55;3.57;;;1.40;;
13325;SDS011;6732;51.044;3.746;2022-11-15T13:11:55;5.90;;;1.40;;
13325;SDS011;6732;51.044;3.746;2022-11-15T13:14:37;3.60;;;1.60;;
13325;SDS011;6732;51.044;3.746;2022-11-15T13:19:45;5.83;;;1.80;;
13325;SDS011;6732;51.044;3.746;2022-11-15T13:22:13;5.60;;;1.60;;
13325;SDS011;6732;51.044;3.746;2022-11-15T13:24:58;3.73;;;1.47;;
13325;SDS011;6732;51.044;3.746;2022-11-15T13:27:25;2.53;;;1.57;;
13325;SDS011;6732;51.044;3.746;2022-11-15T13:29:52;3.57;;;1.50;;
13325;SDS011;6732;51.044;3.746;2022-11-15T13:32:18;2.83;;;1.57;;
13325;SDS011;6732;51.044;3.746;2022-11-15T13:34:46;5.50;;;1.70;;
13325;SDS011;6732;51.044;3.746;2022-11-15T13:39:45;4.70;;;1.57;;
13325;SDS011;6732;51.044;3.746;2022-11-15T13:42:14;5.23;;;1.53;;
13325;SDS011;6732;51.044;3.746;2022-11-15T13:44:41;2.47;;;1.70;;
13325;SDS011;6732;51.044;3.746;2022-11-15T13:47:27;5.30;;;1.73;;
13325;SDS011;6732;51.044;3.746;2022-11-15T13:49:57;4.03;;;1.30;;
13325;SDS011;6732;51.044;3.746;2022-11-15T13:52:26;4.97;;;1.37;;
13325;SDS011;6732;51.044;3.746;2022-11-15T13:55:00;4.23;;;1.57;;
13325;SDS011;6732;51.044;3.746;2022-11-15T13:57:30;3.67;;;1.40;;
13325;SDS011;6732;51.044;3.746;2022-11-15T14:00:26;1.47;;;1.13;;
13325;SDS011;6732;51.044;3.746;2022-11-15T14:03:07;3.53;;;1.40;;
13325;SDS011;6732;51.044;3.746;2022-11-15T14:05:43;2.27;;;1.40;;
13325;SDS011;6732;51.044;3.746;2022-11-15T14:08:28;3.33;;;1.30;;
13325;SDS011;6732;51.044;3.746;2022-11-15T14:13:39;3.57;;;1.70;;
13325;SDS011;6732;51.044;3.746;2022-11-15T14:16:12;3.40;;;1.40;;
13325;SDS011;6732;51.044;3.746;2022-11-15T14:18:49;1.90;;;1.30;;
13325;SDS011;6732;51.044;3.746;2022-11-15T14:21:16;2.20;;;1.40;;
13325;SDS011;6732;51.044;3.746;2022-11-15T14:23:43;5.07;;;1.50;;
13325;SDS011;6732;51.044;3.746;2022-11-15T14:28:56;2.93;;;1.60;;
13325;SDS011;6732;51.044;3.746;2022-11-15T14:31:22;2.10;;;1.20;;
13325;SDS011;6732;51.044;3.746;2022-11-15T14:33:48;1.80;;;1.43;;
13325;SDS011;6732;51.044;3.746;2022-11-15T14:36:15;4.40;;;1.50;;
13325;SDS011;6732;51.044;3.746;2022-11-15T14:38:42;3.67;;;1.57;;
13325;SDS011;6732;51.044;3.746;2022-11-15T14:41:19;2.50;;;1.40;;
13325;SDS011;6732;51.044;3.746;2022-11-15T14:43:50;3.80;;;1.50;;
13325;SDS011;6732;51.044;3.746;2022-11-15T14:46:17;3.80;;;1.60;;
13325;SDS011;6732;51.044;3.746;2022-11-15T14:48:43;2.13;;;1.50;;
13325;SDS011;6732;51.044;3.746;2022-11-15T14:51:11;3.30;;;1.60;;
13325;SDS011;6732;51.044;3.746;2022-11-15T14:53:39;4.93;;;1.70;;
13325;SDS011;6732;51.044;3.746;2022-11-15T14:56:06;5.23;;;1.73;;
13325;SDS011;6732;51.044;3.746;2022-11-15T14:58:32;2.57;;;1.60;;
13325;SDS011;6732;51.044;3.746;2022-11-15T15:00:58;2.87;;;2.10;;
13325;SDS011;6732;51.044;3.746;2022-11-15T15:03:24;3.97;;;1.70;;
13325;SDS011;6732;51.044;3.746;2022-11-15T15:05:50;5.47;;;1.83;;
13325;SDS011;6732;51.044;3.746;2022-11-15T15:08:16;4.87;;;1.80;;
13325;SDS011;6732;51.044;3.746;2022-11-15T15:10:43;4.53;;;2.00;;
13325;SDS011;6732;51.044;3.746;2022-11-15T15:13:14;2.73;;;1.80;;
13325;SDS011;6732;51.044;3.746;2022-11-15T15:15:42;6.23;;;2.30;;
13325;SDS011;6732;51.044;3.746;2022-11-15T15:18:08;3.30;;;2.10;;
13325;SDS011;6732;51.044;3.746;2022-11-15T15:20:37;3.20;;;2.50;;
13325;SDS011;6732;51.044;3.746;2022-11-15T15:23:05;5.03;;;2.20;;
13325;SDS011;6732;51.044;3.746;2022-11-15T15:25:35;4.67;;;2.20;;
13325;SDS011;6732;51.044;3.746;2022-11-15T15:28:01;4.73;;;2.20;;
13325;SDS011;6732;51.044;3.746;2022-11-15T15:30:28;3.77;;;2.53;;
13325;SDS011;6732;51.044;3.746;2022-11-15T15:32:55;4.67;;;2.27;;
13325;SDS011;6732;51.044;3.746;2022-11-15T15:35:22;3.27;;;2.20;;
13325;SDS011;6732;51.044;3.746;2022-11-15T15:37:49;3.60;;;2.33;;
13325;SDS011;6732;51.044;3.746;2022-11-15T15:40:17;4.10;;;2.47;;
13325;SDS011;6732;51.044;3.746;2022-11-15T15:42:47;5.50;;;2.33;;
13325;SDS011;6732;51.044;3.746;2022-11-15T15:45:14;3.80;;;2.17;;
13325;SDS011;6732;51.044;3.746;2022-11-15T15:47:41;3.13;;;2.40;;
13325;SDS011;6732;51.044;3.746;2022-11-15T15:52:42;4.90;;;2.60;;
13325;SDS011;6732;51.044;3.746;2022-11-15T15:55:08;4.20;;;2.73;;
13325;SDS011;6732;51.044;3.746;2022-11-15T15:57:35;4.83;;;2.60;;
13325;SDS011;6732;51.044;3.746;2022-11-15T16:00:02;4.97;;;2.50;;
13325;SDS011;6732;51.044;3.746;2022-11-15T16:02:29;5.67;;;2.70;;
13325;SDS011;6732;51.044;3.746;2022-11-15T16:04:55;4.27;;;2.53;;
13325;SDS011;6732;51.044;3.746;2022-11-15T16:07:21;2.73;;;2.40;;
13325;SDS011;6732;51.044;3.746;2022-11-15T16:09:49;3.77;;;2.83;;
13325;SDS011;6732;51.044;3.746;2022-11-15T16:12:28;3.53;;;2.50;;
13325;SDS011;6732;51.044;3.746;2022-11-15T16:14:58;3.10;;;2.27;;
13325;SDS011;6732;51.044;3.746;2022-11-15T16:17:26;3.40;;;2.90;;
13325;SDS011;6732;51.044;3.746;2022-11-15T16:19:56;3.93;;;2.60;;
13325;SDS011;6732;51.044;3.746;2022-11-15T16:22:22;5.23;;;2.27;;
13325;SDS011;6732;51.044;3.746;2022-11-15T16:24:48;2.60;;;2.17;;
13325;SDS011;6732;51.044;3.746;2022-11-15T16:27:14;3.10;;;2.30;;
13325;SDS011;6732;51.044;3.746;2022-11-15T16:29:45;3.47;;;2.60;;
13325;SDS011;6732;51.044;3.746;2022-11-15T16:32:11;3.97;;;2.60;;
13325;SDS011;6732;51.044;3.746;2022-11-15T16:34:37;2.43;;;2.20;;
13325;SDS011;6732;51.044;3.746;2022-11-15T16:37:04;2.60;;;2.20;;
13325;SDS011;6732;51.044;3.746;2022-11-15T16:39:30;4.40;;;2.50;;
13325;SDS011;6732;51.044;3.746;2022-11-15T16:41:59;3.33;;;2.57;;
13325;SDS011;6732;51.044;3.746;2022-11-15T16:44:25;3.93;;;2.60;;
13325;SDS011;6732;51.044;3.746;2022-11-15T16:46:53;4.10;;;2.90;;
13325;SDS011;6732;51.044;3.746;2022-11-15T16:49:20;6.33;;;2.57;;
13325;SDS011;6732;51.044;3.746;2022-11-15T16:51:47;3.67;;;2.80;;
13325;SDS011;6732;51.044;3.746;2022-11-15T16:54:13;3.00;;;2.40;;
13325;SDS011;6732;51.044;3.746;2022-11-15T16:56:40;3.57;;;2.70;;
13325;SDS011;6732;51.044;3.746;2022-11-15T16:59:08;3.57;;;2.90;;
13325;SDS011;6732;51.044;3.746;2022-11-15T17:01:39;4.23;;;2.80;;